Time;durP1;ratioP1;P1;durP2;ratioP2;P2;SDS_P1;SDS_P2;PMS_P1;PMS_P2;Temp;Humidity;BMP_temperature;BMP_pressure;BME280_temperature;BME280_humidity;BME280_pressure;Samples;Min_cycle;Max_cycle;Signal;HPM_P1;HPM_P2
2023/06/05 00:00:33;;;;;;;4.03;3.80;;;18.80;37.70;;;;;;20797;6817;118536;-71
2023/06/05 00:02:59;;;;;;;4.43;4.12;;;19.00;38.00;;;;;;20578;6817;335961;-71
2023/06/05 00:05:27;;;;;;;4.10;3.80;;;19.00;37.90;;;;;;20797;6817;116951;-71
2023/06/05 00:07:52;;;;;;;4.27;3.87;;;19.10;37.70;;;;;;20770;6817;117636;-72
2023/06/05 00:10:18;;;;;;;3.55;3.35;;;18.90;37.80;;;;;;20652;6833;117532;-71
2023/06/05 00:12:44;;;;;;;4.33;3.80;;;18.80;38.00;;;;;;20467;6833;312238;-71
2023/06/05 00:15:09;;;;;;;3.67;3.47;;;19.00;37.70;;;;;;20733;6834;117723;-71
2023/06/05 00:17:36;;;;;;;4.20;3.90;;;19.00;37.50;;;;;;20499;6835;308589;-71
2023/06/05 00:20:02;;;;;;;4.00;3.80;;;19.20;37.50;;;;;;20483;6825;280302;-71
2023/06/05 00:22:31;;;;;;;4.10;3.80;;;19.50;37.30;;;;;;20545;6825;338935;-71
2023/06/05 00:24:53;;;;;;;4.12;3.80;;;19.70;37.00;;;;;;20515;6825;277508;-71
2023/06/05 00:27:19;;;;;;;4.50;4.10;;;19.80;36.70;;;;;;20533;6825;313039;-71
2023/06/05 00:29:44;;;;;;;4.20;4.00;;;19.90;36.50;;;;;;20564;6816;278726;-71
2023/06/05 00:32:10;;;;;;;4.15;3.85;;;20.00;35.90;;;;;;20549;6816;307071;-71
2023/06/05 00:34:37;;;;;;;4.20;4.00;;;20.00;36.20;;;;;;20588;6816;336565;-71
2023/06/05 00:37:03;;;;;;;3.80;3.50;;;20.00;36.20;;;;;;20808;6816;117364;-71
2023/06/05 00:39:30;;;;;;;4.40;4.00;;;19.70;36.60;;;;;;20589;6816;307084;-71
2023/06/05 00:41:55;;;;;;;4.53;4.13;;;19.60;37.00;;;;;;20567;6816;307478;-72
2023/06/05 00:44:22;;;;;;;3.67;3.47;;;19.50;36.90;;;;;;20798;6816;117576;-71
2023/06/05 00:46:48;;;;;;;4.28;3.92;;;19.50;36.90;;;;;;20598;6815;282140;-71
2023/06/05 00:49:13;;;;;;;3.93;3.67;;;19.50;37.30;;;;;;20585;6816;280858;-70
2023/06/05 00:51:39;;;;;;;4.40;4.00;;;19.60;37.10;;;;;;20590;6816;308413;-70
2023/06/05 00:54:05;;;;;;;3.97;3.70;;;19.70;36.90;;;;;;20776;6816;117617;-70
2023/06/05 00:56:33;;;;;;;3.57;3.27;;;19.00;37.60;;;;;;20778;6816;117669;-70
2023/06/05 00:58:58;;;;;;;3.70;3.50;;;18.90;37.50;;;;;;20799;6816;117109;-70
2023/06/05 01:01:24;;;;;;;3.85;3.62;;;18.70;38.00;;;;;;20577;6816;347528;-71
2023/06/05 01:03:49;;;;;;;4.00;3.70;;;19.10;37.70;;;;;;20595;6816;307303;-70
2023/06/05 01:06:16;;;;;;;5.10;3.17;;;19.10;37.70;;;;;;20790;6816;117387;-70
2023/06/05 01:08:41;;;;;;;3.70;3.28;;;19.10;37.70;;;;;;20803;6816;116972;-70
2023/06/05 01:11:16;;;;;;;4.07;3.77;;;18.80;38.00;;;;;;20584;6816;308683;-70
2023/06/05 01:13:42;;;;;;;4.13;3.40;;;18.90;38.00;;;;;;20755;6816;117165;-71
2023/06/05 01:16:09;;;;;;;3.78;3.47;;;18.80;38.20;;;;;;20771;6816;117182;-71
2023/06/05 01:18:33;;;;;;;3.40;3.20;;;18.50;38.60;;;;;;20788;6816;118185;-71
2023/06/05 01:21:01;;;;;;;4.47;4.18;;;18.50;39.40;;;;;;20590;6816;278272;-71
2023/06/05 01:23:28;;;;;;;5.13;4.63;;;18.50;39.40;;;;;;20596;6816;280063;-71
2023/06/05 01:25:51;;;;;;;5.32;4.93;;;18.80;39.70;;;;;;20596;6816;281857;-71
2023/06/05 01:28:16;;;;;;;4.53;4.22;;;19.00;39.00;;;;;;20798;6816;118207;-71
2023/06/05 01:31:00;;;;;;;4.85;4.55;;;18.80;39.10;;;;;;20591;6816;278914;-71
2023/06/05 01:33:21;;;;;;;4.87;4.47;;;18.80;39.20;;;;;;20551;6816;307577;-71
2023/06/05 01:35:51;;;;;;;7.03;3.80;;;19.00;39.20;;;;;;20751;6816;119939;-71
2023/06/05 01:38:11;;;;;;;4.95;4.55;;;18.80;39.30;;;;;;20542;6816;308508;-72
2023/06/05 01:40:37;;;;;;;5.07;4.68;;;18.90;39.60;;;;;;20590;6816;277954;-72
2023/06/05 01:43:03;;;;;;;4.40;4.17;;;18.80;39.10;;;;;;20791;6816;117151;-71
2023/06/05 01:45:29;;;;;;;4.10;3.80;;;18.80;39.10;;;;;;20805;6816;117373;-71
2023/06/05 01:47:54;;;;;;;4.20;3.50;;;18.40;39.40;;;;;;20782;6816;117104;-72
2023/06/05 01:50:20;;;;;;;3.97;3.77;;;18.10;39.80;;;;;;20804;6816;118394;-72
2023/06/05 01:52:47;;;;;;;4.30;4.03;;;17.90;40.10;;;;;;20585;6816;307500;-71
2023/06/05 01:55:16;;;;;;;4.00;3.80;;;18.00;40.30;;;;;;20803;6816;120299;-71
2023/06/05 01:57:41;;;;;;;4.17;3.97;;;17.90;40.20;;;;;;20771;6815;117197;-72
2023/06/05 02:00:10;;;;;;;4.33;3.93;;;17.60;40.50;;;;;;20764;6816;121045;-72
2023/06/05 02:02:32;;;;;;;4.65;4.32;;;17.40;40.90;;;;;;20576;6816;309500;-72
2023/06/05 02:04:59;;;;;;;4.50;4.10;;;17.60;41.50;;;;;;20799;6816;117246;-72
2023/06/05 02:07:24;;;;;;;4.40;4.00;;;17.60;41.40;;;;;;20580;6816;336668;-72
2023/06/05 02:09:50;;;;;;;4.20;3.90;;;17.80;41.70;;;;;;20593;6816;308385;-72
2023/06/05 02:12:16;;;;;;;4.53;4.23;;;18.10;41.30;;;;;;20783;6816;117223;-72
2023/06/05 02:14:44;;;;;;;3.73;3.53;;;18.10;41.30;;;;;;20804;6816;117682;-72
2023/06/05 02:17:07;;;;;;;4.53;4.13;;;17.80;42.00;;;;;;20539;6816;341592;-71
2023/06/05 02:19:33;;;;;;;4.03;3.73;;;17.90;41.40;;;;;;20775;6816;120038;-71
2023/06/05 02:21:59;;;;;;;4.75;3.78;;;17.60;42.40;;;;;;20770;6816;121283;-72
2023/06/05 02:24:26;;;;;;;5.53;5.13;;;17.60;41.70;;;;;;20791;6816;117772;-72
2023/06/05 02:26:51;;;;;;;6.40;6.00;;;17.50;41.10;;;;;;20587;6816;308018;-72
2023/06/05 02:29:17;;;;;;;4.80;4.40;;;17.50;41.10;;;;;;20760;6816;119169;-71
2023/06/05 02:31:44;;;;;;;4.15;3.90;;;17.50;41.00;;;;;;20532;6816;278970;-71
2023/06/05 02:34:09;;;;;;;5.73;3.40;;;17.70;40.20;;;;;;20714;6816;117308;-72
2023/06/05 02:36:36;;;;;;;4.10;3.80;;;17.70;39.50;;;;;;20527;6816;338123;-72
2023/06/05 02:39:01;;;;;;;4.18;3.78;;;17.70;40.00;;;;;;20519;6816;337404;-72
2023/06/05 02:41:27;;;;;;;3.97;3.58;;;17.90;39.20;;;;;;20500;6816;340010;-71
2023/06/05 02:43:54;;;;;;;3.62;3.30;;;17.80;39.30;;;;;;20724;6816;118403;-73
2023/06/05 02:46:18;;;;;;;3.83;3.50;;;17.80;39.20;;;;;;20781;6816;122932;-72
2023/06/05 02:48:44;;;;;;;4.03;3.72;;;17.50;40.00;;;;;;20591;6816;317282;-72
2023/06/05 02:51:10;;;;;;;3.60;3.40;;;17.60;39.80;;;;;;20803;6816;117454;-72
2023/06/05 02:53:35;;;;;;;4.00;3.70;;;17.40;39.80;;;;;;20579;6816;309643;-72
2023/06/05 02:56:01;;;;;;;3.90;3.60;;;17.50;39.70;;;;;;20567;6816;325460;-72
2023/06/05 02:58:28;;;;;;;3.97;3.77;;;17.80;39.30;;;;;;20584;6816;306940;-72
2023/06/05 03:00:55;;;;;;;3.50;3.20;;;18.00;39.40;;;;;;20801;6816;117676;-72
2023/06/05 03:03:20;;;;;;;3.15;2.90;;;17.40;40.60;;;;;;20792;6816;117791;-72
2023/06/05 03:05:45;;;;;;;3.37;3.17;;;17.50;40.70;;;;;;20801;6816;118762;-72
2023/06/05 03:08:11;;;;;;;3.20;3.00;;;17.20;41.20;;;;;;20779;6816;129194;-71
2023/06/05 03:10:36;;;;;;;3.92;3.62;;;17.00;41.60;;;;;;20586;6814;309217;-72
2023/06/05 03:13:02;;;;;;;3.83;3.63;;;17.20;41.10;;;;;;20589;6816;284721;-72
2023/06/05 03:15:29;;;;;;;3.75;3.55;;;17.50;41.00;;;;;;20587;6816;278384;-72
2023/06/05 03:17:54;;;;;;;4.20;3.90;;;17.80;40.60;;;;;;20573;6816;312391;-72
2023/06/05 03:20:21;;;;;;;4.10;3.65;;;18.10;39.80;;;;;;20594;6816;279758;-72
2023/06/05 03:22:46;;;;;;;3.73;3.43;;;18.10;39.80;;;;;;20793;6816;118069;-72
2023/06/05 03:25:12;;;;;;;3.63;3.40;;;17.80;40.00;;;;;;20809;6816;117000;-72
2023/06/05 03:27:39;;;;;;;3.85;3.62;;;17.40;40.60;;;;;;20593;6816;307007;-72
2023/06/05 03:30:04;;;;;;;3.43;3.23;;;17.50;40.80;;;;;;20792;6816;117022;-72
2023/06/05 03:32:30;;;;;;;6.33;3.83;;;17.40;40.80;;;;;;20800;6816;117367;-72
2023/06/05 03:34:56;;;;;;;18.47;16.80;;;17.10;41.10;;;;;;20801;6816;117530;-71
2023/06/05 03:37:24;;;;;;;4.85;4.55;;;16.90;41.40;;;;;;20806;6816;117191;-72
2023/06/05 03:39:50;;;;;;;3.40;3.20;;;16.80;41.60;;;;;;20798;6816;117227;-71
2023/06/05 03:42:15;;;;;;;4.65;4.35;;;16.60;41.60;;;;;;20571;6816;339826;-72
2023/06/05 03:44:44;;;;;;;4.77;4.30;;;17.30;40.60;;;;;;20568;6816;278514;-72
2023/06/05 03:47:10;;;;;;;4.57;4.23;;;17.30;40.60;;;;;;20588;6816;307625;-72
2023/06/05 03:49:35;;;;;;;4.30;4.10;;;17.60;40.30;;;;;;20591;6816;278079;-72
2023/06/05 03:52:02;;;;;;;4.60;4.30;;;17.80;40.10;;;;;;20565;6816;278865;-72
2023/06/05 03:54:27;;;;;;;4.17;3.97;;;18.00;39.90;;;;;;20591;6816;288946;-71
2023/06/05 03:56:54;;;;;;;4.37;4.07;;;18.10;39.90;;;;;;20582;6816;308046;-72
2023/06/05 03:59:19;;;;;;;4.30;4.00;;;18.40;39.90;;;;;;20579;6816;303574;-72
2023/06/05 04:01:44;;;;;;;3.80;3.60;;;18.30;39.70;;;;;;20797;6816;117367;-72
2023/06/05 04:04:10;;;;;;;3.90;3.60;;;18.10;40.30;;;;;;20566;6816;314432;-72
2023/06/05 04:06:40;;;;;;;3.73;3.53;;;18.00;40.20;;;;;;20771;6816;117809;-72
2023/06/05 04:09:10;;;;;;;3.70;3.37;;;17.50;41.20;;;;;;20786;6816;117056;-70
2023/06/05 04:11:31;;;;;;;3.87;3.60;;;17.50;41.20;;;;;;20579;6816;278429;-70
2023/06/05 04:13:56;;;;;;;3.70;3.50;;;17.60;41.30;;;;;;20780;6816;117253;-71
2023/06/05 04:16:22;;;;;;;4.30;4.00;;;17.40;41.20;;;;;;20601;6816;308282;-70
2023/06/05 04:18:47;;;;;;;3.93;3.63;;;17.50;41.30;;;;;;20810;6816;117220;-70
2023/06/05 04:21:13;;;;;;;4.37;4.00;;;17.40;41.40;;;;;;20583;6815;278446;-70
2023/06/05 04:23:38;;;;;;;4.40;4.10;;;17.60;41.60;;;;;;20589;6816;307516;-70
2023/06/05 04:26:04;;;;;;;3.27;3.07;;;17.80;41.30;;;;;;20777;6816;130252;-70
2023/06/05 04:28:31;;;;;;;4.12;3.83;;;17.60;41.50;;;;;;20599;6816;311551;-70
2023/06/05 04:30:58;;;;;;;3.77;3.50;;;17.70;42.00;;;;;;20810;6816;117165;-70
2023/06/05 04:33:23;;;;;;;4.07;3.77;;;17.60;41.90;;;;;;20595;6816;278774;-70
2023/06/05 04:35:49;;;;;;;3.60;3.30;;;17.70;41.60;;;;;;20805;6816;116975;-70
2023/06/05 04:38:15;;;;;;;3.73;3.53;;;17.60;41.90;;;;;;20541;6816;311833;-70
2023/06/05 04:40:40;;;;;;;4.47;4.07;;;17.70;41.50;;;;;;20590;6816;331168;-70
2023/06/05 04:43:08;;;;;;;4.03;3.72;;;18.10;40.60;;;;;;20597;6816;282091;-69
2023/06/05 04:45:32;;;;;;;5.20;3.80;;;18.10;40.60;;;;;;20801;6816;117732;-70
2023/06/05 04:47:57;;;;;;;4.50;4.20;;;17.80;41.00;;;;;;20575;6816;313270;-70
2023/06/05 04:50:24;;;;;;;4.50;4.07;;;17.80;41.00;;;;;;20801;6816;117737;-69
2023/06/05 04:52:49;;;;;;;4.22;3.90;;;17.50;41.40;;;;;;20589;6816;277969;-69
2023/06/05 04:55:14;;;;;;;3.97;3.78;;;17.50;41.40;;;;;;20594;6816;311601;-70
2023/06/05 04:57:40;;;;;;;4.33;3.93;;;17.70;41.20;;;;;;20596;6816;278028;-70
2023/06/05 05:00:07;;;;;;;4.70;4.40;;;17.90;40.80;;;;;;20576;6816;307978;-70
2023/06/05 05:02:31;;;;;;;4.30;4.00;;;18.10;41.00;;;;;;20795;6816;117304;-70
2023/06/05 05:04:57;;;;;;;3.97;3.77;;;17.50;42.00;;;;;;20799;6816;123083;-70
2023/06/05 05:07:26;;;;;;;3.90;3.70;;;17.50;42.00;;;;;;20799;6816;120864;-70
2023/06/05 05:09:49;;;;;;;4.60;4.20;;;17.30;42.40;;;;;;20580;6816;311638;-69
2023/06/05 05:12:14;;;;;;;4.23;3.93;;;17.40;41.90;;;;;;20785;6816;118009;-70
2023/06/05 05:14:40;;;;;;;3.93;3.73;;;17.40;42.10;;;;;;20796;6816;117291;-70
2023/06/05 05:17:05;;;;;;;4.18;3.72;;;17.30;42.40;;;;;;20804;6816;117464;-71
2023/06/05 05:19:31;;;;;;;4.80;3.67;;;17.20;42.70;;;;;;20805;6816;117477;-71
2023/06/05 05:21:57;;;;;;;3.80;3.60;;;17.00;43.30;;;;;;20772;6816;117289;-71
2023/06/05 05:24:24;;;;;;;4.53;4.22;;;17.00;43.30;;;;;;20591;6816;336058;-70
2023/06/05 05:26:48;;;;;;;5.00;4.50;;;17.30;43.10;;;;;;20593;6816;308114;-70
2023/06/05 05:29:15;;;;;;;4.15;3.95;;;17.80;42.70;;;;;;20702;6816;119512;-70
2023/06/05 05:31:40;;;;;;;4.50;4.20;;;17.70;42.50;;;;;;20562;6816;315932;-70
2023/06/05 05:34:06;;;;;;;3.50;3.30;;;17.90;42.50;;;;;;20756;6814;117658;-70
2023/06/05 05:36:36;;;;;;;3.60;3.40;;;17.90;42.60;;;;;;20775;6816;117052;-70
2023/06/05 05:39:00;;;;;;;5.18;4.30;;;17.80;43.00;;;;;;20571;6816;338582;-71
2023/06/05 05:41:26;;;;;;;4.27;3.87;;;18.00;43.10;;;;;;20793;6816;117218;-70
2023/06/05 05:43:51;;;;;;;4.45;4.15;;;18.00;43.10;;;;;;20580;6816;279011;-70
2023/06/05 05:46:16;;;;;;;4.27;4.00;;;18.20;42.50;;;;;;20772;6816;121048;-70
2023/06/05 05:48:42;;;;;;;3.80;3.50;;;18.20;42.60;;;;;;20787;6816;117209;-70
2023/06/05 05:51:08;;;;;;;4.50;4.10;;;18.10;42.90;;;;;;20597;6816;280514;-70
2023/06/05 05:53:33;;;;;;;4.05;3.85;;;18.40;43.10;;;;;;20591;6816;279336;-70
2023/06/05 05:55:59;;;;;;;4.57;4.17;;;18.80;42.60;;;;;;20572;6816;308412;-71
2023/06/05 05:58:24;;;;;;;3.73;3.40;;;19.20;41.80;;;;;;20803;6816;117185;-70
2023/06/05 06:00:50;;;;;;;4.73;4.30;;;19.30;42.00;;;;;;20587;6816;278865;-70
2023/06/05 06:03:15;;;;;;;4.30;4.00;;;19.50;42.00;;;;;;20593;6816;292349;-70
2023/06/05 06:05:41;;;;;;;4.85;3.92;;;19.80;41.70;;;;;;20592;6816;308332;-70
2023/06/05 06:08:07;;;;;;;4.65;3.92;;;20.50;40.20;;;;;;20571;6816;341579;-70
2023/06/05 06:10:34;;;;;;;4.03;3.73;;;20.40;40.10;;;;;;20805;6816;120938;-70
2023/06/05 06:13:00;;;;;;;4.33;3.93;;;20.60;41.10;;;;;;20801;6816;117252;-70
2023/06/05 06:15:27;;;;;;;5.50;3.70;;;20.80;41.70;;;;;;20593;6816;282034;-70
2023/06/05 06:17:51;;;;;;;4.37;4.07;;;21.40;40.00;;;;;;20589;6816;294012;-70
2023/06/05 06:20:16;;;;;;;5.35;4.00;;;22.40;38.60;;;;;;20778;6816;117599;-70
2023/06/05 06:22:42;;;;;;;4.70;3.63;;;23.00;39.10;;;;;;20806;6816;117042;-71
2023/06/05 06:25:09;;;;;;;7.17;3.73;;;23.30;39.20;;;;;;20791;6816;117671;-71
2023/06/05 06:27:34;;;;;;;4.60;4.00;;;23.60;39.00;;;;;;20557;6816;308396;-71
2023/06/05 06:30:01;;;;;;;5.12;4.10;;;24.70;36.70;;;;;;20775;6816;117163;-71
2023/06/05 06:32:25;;;;;;;4.67;4.27;;;24.60;36.60;;;;;;20778;6816;117614;-71
2023/06/05 06:34:53;;;;;;;4.47;4.03;;;25.40;34.60;;;;;;20598;6816;280111;-71
2023/06/05 06:37:20;;;;;;;4.50;4.10;;;25.40;34.60;;;;;;20805;6816;117270;-71
2023/06/05 06:39:43;;;;;;;3.93;3.63;;;25.70;35.00;;;;;;20799;6816;117278;-71
2023/06/05 06:42:10;;;;;;;4.57;3.87;;;25.80;35.20;;;;;;20775;6816;119436;-71
2023/06/05 06:44:34;;;;;;;4.23;3.97;;;25.80;35.20;;;;;;20565;6815;307482;-71
2023/06/05 06:47:00;;;;;;;5.03;4.00;;;26.40;33.10;;;;;;20567;6816;307428;-71
2023/06/05 06:49:27;;;;;;;4.50;4.20;;;27.50;32.60;;;;;;20804;6816;118302;-71
2023/06/05 06:51:52;;;;;;;4.30;4.00;;;27.40;32.60;;;;;;20783;6816;116894;-74
2023/06/05 06:54:19;;;;;;;4.67;4.17;;;27.40;32.70;;;;;;20449;6816;290137;-72
2023/06/05 06:56:45;;;;;;;4.55;4.25;;;28.50;29.70;;;;;;20583;6816;310400;-73
2023/06/05 06:59:12;;;;;;;5.60;5.10;;;28.90;28.90;;;;;;20567;6816;342196;-72
2023/06/05 07:01:40;;;;;;;4.80;4.43;;;28.90;29.40;;;;;;20792;6816;117675;-73
2023/06/05 07:04:03;;;;;;;5.27;4.90;;;28.90;29.40;;;;;;20556;6816;279246;-74
2023/06/05 07:06:28;;;;;;;4.63;4.33;;;29.00;28.80;;;;;;20807;6816;117673;-72
2023/06/05 07:08:54;;;;;;;5.05;4.68;;;28.90;29.40;;;;;;20604;6816;279533;-72
2023/06/05 07:11:20;;;;;;;4.77;4.47;;;28.90;28.50;;;;;;20597;6816;309699;-72
2023/06/05 07:13:46;;;;;;;5.03;4.63;;;29.20;28.10;;;;;;20578;6816;282639;-71
2023/06/05 07:16:11;;;;;;;5.23;4.80;;;29.20;28.10;;;;;;20552;6816;277934;-72
2023/06/05 07:18:37;;;;;;;5.28;4.95;;;29.30;27.90;;;;;;20579;6816;292023;-72
2023/06/05 07:21:03;;;;;;;5.75;4.90;;;29.20;28.50;;;;;;20596;6816;309103;-71
2023/06/05 07:23:28;;;;;;;4.37;4.07;;;29.20;28.00;;;;;;20807;6816;119801;-71
2023/06/05 07:25:54;;;;;;;4.13;3.70;;;28.80;28.50;;;;;;20785;6816;120897;-73
2023/06/05 07:28:20;;;;;;;4.83;4.30;;;28.40;28.50;;;;;;20813;6816;117662;-72
2023/06/05 07:30:50;;;;;;;4.07;3.78;;;27.80;28.80;;;;;;20809;6816;119851;-71
2023/06/05 07:33:14;;;;;;;6.33;4.20;;;27.40;29.20;;;;;;20780;6816;117144;-71
2023/06/05 07:35:41;;;;;;;7.55;4.43;;;27.20;30.20;;;;;;20602;6816;279667;-72
2023/06/05 07:38:06;;;;;;;5.13;4.50;;;27.20;30.20;;;;;;20774;6816;118053;-73
2023/06/05 07:40:32;;;;;;;4.00;3.77;;;27.20;30.10;;;;;;20797;6816;121249;-72
2023/06/05 07:42:57;;;;;;;3.43;3.33;;;27.00;30.30;;;;;;20800;6816;121015;-75
2023/06/05 07:45:23;;;;;;;4.40;4.10;;;26.90;31.10;;;;;;20567;6816;304256;-72
2023/06/05 07:47:48;;;;;;;3.63;3.43;;;27.20;30.00;;;;;;20804;6816;120589;-73
2023/06/05 07:50:15;;;;;;;4.40;3.93;;;27.20;30.00;;;;;;20782;6816;117759;-71
2023/06/05 07:52:40;;;;;;;3.70;3.50;;;27.20;30.00;;;;;;20785;6816;116919;-72
2023/06/05 07:55:07;;;;;;;4.23;3.80;;;27.10;30.10;;;;;;20591;6816;337027;-71
2023/06/05 07:57:32;;;;;;;5.27;4.57;;;27.60;29.80;;;;;;20574;6815;308387;-71
2023/06/05 07:59:58;;;;;;;5.17;3.90;;;28.30;29.30;;;;;;20784;6816;120883;-71
2023/06/05 08:02:24;;;;;;;4.35;4.12;;;28.30;28.90;;;;;;20586;6816;312085;-71
2023/06/05 08:04:49;;;;;;;4.33;4.03;;;28.50;28.30;;;;;;20583;6816;281237;-71
2023/06/05 08:07:15;;;;;;;4.70;4.30;;;28.80;28.50;;;;;;20596;6816;284322;-71
2023/06/05 08:09:42;;;;;;;4.40;4.00;;;29.10;28.50;;;;;;20591;6816;290905;-71
2023/06/05 08:12:07;;;;;;;4.12;3.83;;;29.30;28.20;;;;;;20569;6816;296472;-71
2023/06/05 08:14:33;;;;;;;4.90;4.50;;;29.50;28.10;;;;;;20590;6816;307437;-71
2023/06/05 08:16:58;;;;;;;4.70;4.33;;;29.70;27.80;;;;;;20790;6816;117683;-71
2023/06/05 08:19:24;;;;;;;4.00;3.70;;;29.50;27.90;;;;;;20805;6816;117147;-71
2023/06/05 08:21:50;;;;;;;5.80;4.43;;;28.90;28.70;;;;;;20807;6816;118114;-71
2023/06/05 08:24:16;;;;;;;4.23;3.90;;;28.90;28.70;;;;;;20769;6816;122710;-71
2023/06/05 08:26:41;;;;;;;4.30;4.00;;;28.70;28.90;;;;;;20814;6816;117660;-71
2023/06/05 08:29:07;;;;;;;5.13;4.40;;;28.50;29.20;;;;;;20790;6816;117656;-73
2023/06/05 08:31:34;;;;;;;6.13;4.60;;;28.50;29.40;;;;;;20801;6816;116611;-71
2023/06/05 08:33:59;;;;;;;4.75;4.35;;;28.60;29.50;;;;;;20567;6816;337481;-71
2023/06/05 08:36:24;;;;;;;4.57;4.28;;;29.00;29.30;;;;;;20587;6816;307042;-70
2023/06/05 08:38:50;;;;;;;5.83;5.00;;;29.50;29.00;;;;;;20588;6816;309570;-71
2023/06/05 08:41:16;;;;;;;4.57;4.17;;;29.80;28.50;;;;;;20801;6816;116965;-72
2023/06/05 08:43:44;;;;;;;4.90;4.60;;;29.70;28.60;;;;;;20582;6816;308493;-70
2023/06/05 08:46:08;;;;;;;6.00;4.90;;;29.80;28.80;;;;;;20564;6816;337919;-73
2023/06/05 08:48:34;;;;;;;4.90;4.50;;;30.00;29.10;;;;;;20794;6816;118000;-72
2023/06/05 08:50:59;;;;;;;4.62;4.32;;;29.80;28.80;;;;;;20578;6816;278449;-71
2023/06/05 08:53:26;;;;;;;5.28;4.87;;;29.80;28.80;;;;;;20601;6816;311822;-72
2023/06/05 08:55:50;;;;;;;5.25;4.85;;;30.00;28.50;;;;;;20582;6816;309621;-72
2023/06/05 08:58:16;;;;;;;5.00;4.60;;;30.20;28.70;;;;;;20567;6816;308440;-72
2023/06/05 09:00:41;;;;;;;5.10;4.70;;;30.30;28.80;;;;;;20580;6816;340403;-72
2023/06/05 09:03:07;;;;;;;5.40;4.90;;;30.50;28.70;;;;;;20587;6816;309555;-72
2023/06/05 09:05:33;;;;;;;6.07;4.62;;;31.10;28.90;;;;;;20570;6816;339380;-71
2023/06/05 09:07:59;;;;;;;5.17;4.77;;;31.10;28.80;;;;;;20779;6815;126927;-72
2023/06/05 09:10:25;;;;;;;4.80;4.50;;;30.80;28.80;;;;;;20801;6816;118224;-72
2023/06/05 09:12:57;;;;;;;5.20;4.80;;;30.80;28.80;;;;;;20787;6816;117592;-72
2023/06/05 09:15:26;;;;;;;7.57;5.33;;;30.60;28.90;;;;;;20788;6816;117097;-72
2023/06/05 09:18:12;;;;;;;6.10;5.43;;;30.40;29.00;;;;;;20594;6816;277950;-71
2023/06/05 09:20:37;;;;;;;5.37;5.07;;;30.40;29.60;;;;;;20594;6816;278816;-72
2023/06/05 09:23:04;;;;;;;5.62;5.22;;;30.80;29.60;;;;;;20566;6816;277994;-74
2023/06/05 09:25:50;;;;;;;6.13;5.63;;;30.90;28.60;;;;;;20578;6816;308322;-74
2023/06/05 09:28:15;;;;;;;5.57;5.17;;;30.90;28.60;;;;;;20567;6816;278794;-76
2023/06/05 09:30:57;;;;;;;5.43;4.77;;;30.90;28.80;;;;;;20797;6816;117157;-71
2023/06/05 09:33:23;;;;;;;5.90;5.40;;;30.60;28.90;;;;;;20786;6816;117610;-76
2023/06/05 09:35:48;;;;;;;5.77;5.37;;;30.20;29.30;;;;;;20788;6816;118506;-72
2023/06/05 09:38:27;;;;;;;6.35;5.35;;;29.90;29.50;;;;;;20475;6827;278795;-75
2023/06/05 09:40:53;;;;;;;5.30;4.80;;;29.70;29.70;;;;;;20754;6827;117394;-74
2023/06/05 09:43:22;;;;;;;5.47;5.07;;;29.70;29.70;;;;;;20697;6834;117680;-72
2023/06/05 09:45:49;;;;;;;5.03;4.73;;;29.50;29.90;;;;;;20679;6854;117929;-74
2023/06/05 09:48:14;;;;;;;5.55;5.20;;;29.50;29.90;;;;;;20539;6822;333113;-74
2023/06/05 09:50:41;;;;;;;5.12;4.82;;;29.70;30.00;;;;;;20572;6822;294098;-74
2023/06/05 09:53:07;;;;;;;5.10;4.80;;;29.90;29.30;;;;;;20784;6822;117156;-72
2023/06/05 09:55:32;;;;;;;5.10;4.70;;;29.90;29.30;;;;;;20758;6822;118809;-76
2023/06/05 09:57:58;;;;;;;4.47;4.10;;;29.70;29.40;;;;;;20766;6822;129517;-77
2023/06/05 10:00:24;;;;;;;5.33;4.93;;;29.50;29.70;;;;;;20778;6822;117960;-75
2023/06/05 10:02:50;;;;;;;5.40;5.10;;;29.70;29.70;;;;;;20558;6822;312864;-76
2023/06/05 10:05:16;;;;;;;4.93;4.63;;;29.70;29.70;;;;;;20777;6822;117250;-75
2023/06/05 10:07:42;;;;;;;4.83;4.40;;;29.80;29.30;;;;;;20563;6822;336852;-73
2023/06/05 10:10:11;;;;;;;4.93;4.62;;;30.00;28.80;;;;;;20557;6822;278275;-73
2023/06/05 10:12:36;;;;;;;5.53;5.07;;;30.20;28.60;;;;;;20573;6822;307234;-75
2023/06/05 10:15:02;;;;;;;5.00;4.70;;;30.50;28.50;;;;;;20774;6822;117184;-75
2023/06/05 10:17:28;;;;;;;5.40;5.00;;;30.50;28.30;;;;;;20551;6822;293864;-74
2023/06/05 10:19:53;;;;;;;10.10;5.30;;;30.60;28.50;;;;;;20556;6820;307153;-76
2023/06/05 10:22:20;;;;;;;5.00;4.67;;;30.80;28.40;;;;;;20413;6822;336698;-75
2023/06/05 10:24:50;;;;;;;5.07;4.62;;;31.00;27.80;;;;;;20567;6822;330944;-74
2023/06/05 10:27:39;;;;;;;5.10;4.70;;;31.20;27.50;;;;;;20528;6822;277476;-74
2023/06/05 10:30:08;;;;;;;6.80;4.90;;;31.40;27.30;;;;;;20764;6822;117945;-75
2023/06/05 10:32:40;;;;;;;5.30;4.77;;;30.90;26.50;;;;;;20501;6839;309426;-75
2023/06/05 10:35:27;;;;;;;7.70;4.60;;;30.90;26.50;;;;;;20739;6822;117293;-73
2023/06/05 10:38:18;;;;;;;5.27;4.70;;;30.70;27.50;;;;;;20780;6822;117345;-73
2023/06/05 10:40:43;;;;;;;5.17;4.77;;;30.40;27.20;;;;;;20565;6822;310460;-72
2023/06/05 10:43:35;;;;;;;4.63;4.33;;;30.60;27.60;;;;;;20777;6822;117684;-73
2023/06/05 10:46:21;;;;;;;5.07;4.68;;;30.70;27.50;;;;;;20271;6839;334308;-73
2023/06/05 10:49:15;;;;;;;4.33;4.13;;;30.90;27.70;;;;;;20772;6822;117174;-73
2023/06/05 10:51:43;;;;;;;4.80;4.40;;;31.20;28.10;;;;;;20557;6822;314766;-74
2023/06/05 10:54:09;;;;;;;4.90;4.60;;;31.20;27.50;;;;;;20543;6822;298900;-74
2023/06/05 10:56:50;;;;;;;5.70;5.20;;;31.60;26.60;;;;;;20112;6822;336998;-73
2023/06/05 10:59:17;;;;;;;7.13;4.40;;;31.60;26.50;;;;;;20726;6839;117334;-72
2023/06/05 11:01:42;;;;;;;5.37;4.90;;;31.50;26.40;;;;;;20572;6822;342149;-73
2023/06/05 11:04:08;;;;;;;5.32;4.72;;;31.50;26.20;;;;;;20540;6822;278895;-73
2023/06/05 11:06:37;;;;;;;5.18;4.70;;;31.60;26.40;;;;;;20564;6822;307079;-73
2023/06/05 11:09:12;;;;;;;4.30;4.10;;;31.80;26.10;;;;;;20767;6822;117334;-73
2023/06/05 11:11:59;;;;;;;4.97;4.60;;;31.80;26.40;;;;;;20764;6822;120360;-73
2023/06/05 11:14:45;;;;;;;5.17;4.40;;;31.10;26.10;;;;;;20774;6822;117335;-73
2023/06/05 11:17:31;;;;;;;4.50;4.30;;;31.10;26.10;;;;;;20730;6839;117307;-76
2023/06/05 11:19:58;;;;;;;5.07;4.67;;;30.60;26.30;;;;;;20752;6822;117917;-74
2023/06/05 11:22:26;;;;;;;4.70;4.37;;;30.00;26.50;;;;;;20756;6822;118379;-76
2023/06/05 11:25:15;;;;;;;6.20;4.87;;;29.70;26.80;;;;;;20771;6822;115120;-74
2023/06/05 11:27:40;;;;;;;5.33;4.83;;;29.60;27.00;;;;;;20480;6822;293913;-75
2023/06/05 11:30:07;;;;;;;5.83;5.00;;;29.90;26.60;;;;;;20758;6821;121096;-73
2023/06/05 11:32:32;;;;;;;4.90;4.70;;;30.10;26.70;;;;;;20554;6821;309762;-76
2023/06/05 11:34:59;;;;;;;5.67;5.17;;;30.40;26.10;;;;;;20786;6822;117804;-73
2023/06/05 11:37:25;;;;;;;7.50;5.00;;;30.50;26.20;;;;;;20789;6822;117956;-75
2023/06/05 11:39:51;;;;;;;5.20;4.80;;;30.60;26.10;;;;;;20728;6839;117130;-76
2023/06/05 11:42:26;;;;;;;4.83;4.53;;;30.60;26.00;;;;;;20751;6822;117704;-76
2023/06/05 11:44:52;;;;;;;4.93;4.43;;;30.70;26.60;;;;;;20774;6822;117217;-74
2023/06/05 11:47:24;;;;;;;5.10;4.80;;;30.60;26.40;;;;;;20773;6820;113440;-77
2023/06/05 11:49:49;;;;;;;4.40;4.10;;;30.60;26.40;;;;;;20737;6820;117647;-76
2023/06/05 11:52:18;;;;;;;5.20;4.90;;;30.50;26.40;;;;;;20487;6835;280888;-76
2023/06/05 11:54:53;;;;;;;5.50;5.00;;;30.60;26.30;;;;;;20522;6834;309550;-75
2023/06/05 11:57:12;;;;;;;4.95;4.65;;;30.90;26.50;;;;;;20514;6834;278149;-73
2023/06/05 11:59:36;;;;;;;4.87;4.60;;;31.20;25.90;;;;;;20743;6834;118229;-75
2023/06/05 12:02:03;;;;;;;5.03;4.63;;;31.20;25.80;;;;;;20721;6834;118476;-73
2023/06/05 12:04:27;;;;;;;5.03;4.67;;;31.00;26.20;;;;;;20512;6834;310428;-74
2023/06/05 12:06:53;;;;;;;5.00;4.60;;;31.10;26.40;;;;;;20526;6834;336723;-76
2023/06/05 12:09:18;;;;;;;5.07;4.57;;;31.30;25.60;;;;;;20510;6834;337462;-72
2023/06/05 12:11:44;;;;;;;5.17;4.87;;;31.20;25.70;;;;;;20521;6832;277940;-74
2023/06/05 12:14:09;;;;;;;5.40;4.90;;;31.20;25.50;;;;;;20517;6832;277720;-75
2023/06/05 12:16:45;;;;;;;5.00;4.60;;;31.20;26.00;;;;;;20728;6832;117319;-78
2023/06/05 12:19:14;;;;;;;4.27;4.07;;;30.90;25.60;;;;;;20722;6832;119222;-75
2023/06/05 12:21:39;;;;;;;5.07;4.60;;;30.60;25.80;;;;;;20549;6832;340594;-78
2023/06/05 12:24:05;;;;;;;5.50;5.00;;;30.60;26.00;;;;;;20525;6832;308115;-82
2023/06/05 12:26:32;;;;;;;4.90;4.60;;;30.70;25.90;;;;;;20745;6832;117854;-75
2023/06/05 12:29:06;;;;;;;4.80;4.50;;;30.60;25.60;;;;;;20471;6832;278590;-74
2023/06/05 12:31:35;;;;;;;5.27;4.83;;;30.50;25.80;;;;;;20520;6832;309213;-74
2023/06/05 12:34:00;;;;;;;4.90;4.47;;;30.50;25.10;;;;;;20677;6832;117181;-74